Mammoth Cave National Park, KY

9:58 PM CDT on April 20, 2015 (GMT -0500)
MIDCREST DR. | | Change Station
CLOSE
Current Station
Personal Weather Station
Location: Bowling Green, KY
Elevation: 686 ft
Nearby Weather Stations
Active Advisory: Flood Warning

Elev 686 ft 36.99 °N, 86.53 °W | Updated 8 seconds ago

Mostly Cloudy
Mostly Cloudy
51.1 °F
Feels Like 51.1 °F
N
0.0
Wind Variable Wind from West
Gusts 0.0 mph

Today
High -- | Low -- °F
--% Chance of Precip.
Yesterday
High -- | Low -- °F
Precip. -- in
6:05 AM 7:24 PM
Waxing Crescent, 7% visible
Pressure 29.86 in
Visibility 10.0 miles
Clouds Scattered Clouds 6500 ft
Mostly Cloudy 9500 ft
Dew Point 48 °F
Humidity 90%
Rainfall 0.43 in
Snow Depth Not available.
UV 0 out of 12
Pollen 9.10 out of 12
Air Quality Not available.
Flu Activity Local Activity
METAR KBWG 210253Z AUTO 29003KT 10SM SCT065 BKN095 12/06 A2986 RMK AO2 SLP109 T01220056 53031

More Conditions Fewer Conditions

Pressure 29.86 in
Visibility 10.0 miles
Clouds Scattered Clouds 6500 ft
Mostly Cloudy 9500 ft
Dew Point 48 °F
Humidity 90%
Rainfall 0.43 in
Snow Depth Not available.
UV 0 out of 12
Pollen 9.10 out of 12
Air Quality Not available.
Flu Activity Local Activity
METAR KBWG 210253Z AUTO 29003KT 10SM SCT065 BKN095 12/06 A2986 RMK AO2 SLP109 T01220056 53031

More Conditions Fewer Conditions

10-Day Weather Forecast

Almanac

Astronomy

Apr. 20, 2015 Rise Set
Actual Time
Civil Twilight
Nautical Twilight
Astronomical Twilight
Moon
Length of Visible Light
Length of Day
Tomorrow will be .
, % of the Moon is Illuminated

Today's Extremes

State Highs State Lows

Community

WunderPhotos

Upload Photos

1,815,283 photos uploaded!

WunderBlogs® & News

Nearby

Air Quality

  Air Quality AQ Index Pollutant
Not available.

Snow Depth

Station Depth Elevation

Earthquake Activity

City Distance Mag. Time & Date
Minimum magnitude displayed is 2.5.

Coastal Water Temperatures

Place Temperature

Stations

Nearby Weather Stations

Station Location Temp. Windchill Dew Point Humidity Wind Precip. Elev Updated Type
                   
Flood Warning
Statement as of 10:21 PM EDT on April 20, 2015

The Flood Warning continues for
the Green River at Woodbury.
* Until further notice.
* At 6:00 am Monday the stage was 37.9 feet.
* Flood stage is 33.0 feet.
* Minor flooding is occurring and minor flooding is forecast.
* Forecast... the river will continue rising to near 38.8 feet by
after midnight Tuesday then begin falling.
* Impact... at 39.0 feet... low spots on north and South Church streets
in Woodbury flood.
* Flood history... this crest compares to a previous crest of 38.8
feet on Mar 7 2015.


Lat... Lon 3724 8641 3728 8659 3739 8678 3728 8680
      3716 8665 3713 8641